sensor_id;sensor_type;location;lat;lon;timestamp;temperature;humidity
21167;DHT22;10741;52.272;9.580;2023-07-24T00:00:49;19.10;99.90
21167;DHT22;10741;52.272;9.580;2023-07-24T00:03:20;19.10;99.90
21167;DHT22;10741;52.272;9.580;2023-07-24T00:05:46;19.10;99.90
21167;DHT22;10741;52.272;9.580;2023-07-24T00:08:12;19.10;99.90
21167;DHT22;10741;52.272;9.580;2023-07-24T00:10:38;19.00;99.90
21167;DHT22;10741;52.272;9.580;2023-07-24T00:13:04;19.10;99.90
21167;DHT22;10741;52.272;9.580;2023-07-24T00:15:30;19.10;99.90
21167;DHT22;10741;52.272;9.580;2023-07-24T00:17:56;19.10;99.90
21167;DHT22;10741;52.272;9.580;2023-07-24T00:20:21;19.10;99.90
21167;DHT22;10741;52.272;9.580;2023-07-24T00:22:47;19.10;99.90
21167;DHT22;10741;52.272;9.580;2023-07-24T00:25:13;19.10;99.90
21167;DHT22;10741;52.272;9.580;2023-07-24T00:27:39;19.10;99.90
21167;DHT22;10741;52.272;9.580;2023-07-24T00:30:05;19.10;99.90
21167;DHT22;10741;52.272;9.580;2023-07-24T00:32:31;19.10;99.90
21167;DHT22;10741;52.272;9.580;2023-07-24T00:34:58;19.10;99.90
21167;DHT22;10741;52.272;9.580;2023-07-24T00:37:25;19.10;99.90
21167;DHT22;10741;52.272;9.580;2023-07-24T00:39:51;19.10;99.90
21167;DHT22;10741;52.272;9.580;2023-07-24T00:42:17;19.10;99.90
21167;DHT22;10741;52.272;9.580;2023-07-24T00:44:44;19.10;99.90
21167;DHT22;10741;52.272;9.580;2023-07-24T00:47:09;19.10;99.90
21167;DHT22;10741;52.272;9.580;2023-07-24T00:49:35;19.10;99.90
21167;DHT22;10741;52.272;9.580;2023-07-24T00:52:01;19.10;99.90
21167;DHT22;10741;52.272;9.580;2023-07-24T00:54:30;19.20;99.90
21167;DHT22;10741;52.272;9.580;2023-07-24T00:56:56;19.20;99.90
21167;DHT22;10741;52.272;9.580;2023-07-24T00:59:22;19.20;99.90
21167;DHT22;10741;52.272;9.580;2023-07-24T01:01:48;19.30;99.90
21167;DHT22;10741;52.272;9.580;2023-07-24T01:04:14;19.30;99.90
21167;DHT22;10741;52.272;9.580;2023-07-24T01:06:41;19.30;99.90
21167;DHT22;10741;52.272;9.580;2023-07-24T01:09:08;19.30;99.90
21167;DHT22;10741;52.272;9.580;2023-07-24T01:11:49;19.30;99.90
21167;DHT22;10741;52.272;9.580;2023-07-24T01:14:31;19.20;99.90
21167;DHT22;10741;52.272;9.580;2023-07-24T01:16:59;19.20;99.90
21167;DHT22;10741;52.272;9.580;2023-07-24T01:19:34;19.20;99.90
21167;DHT22;10741;52.272;9.580;2023-07-24T01:27:34;19.20;99.90
21167;DHT22;10741;52.272;9.580;2023-07-24T01:30:00;19.20;99.90
21167;DHT22;10741;52.272;9.580;2023-07-24T01:32:26;19.20;99.90
21167;DHT22;10741;52.272;9.580;2023-07-24T01:34:52;19.20;99.90
21167;DHT22;10741;52.272;9.580;2023-07-24T01:37:20;19.10;99.90
21167;DHT22;10741;52.272;9.580;2023-07-24T01:39:47;19.20;99.90
21167;DHT22;10741;52.272;9.580;2023-07-24T01:42:14;19.20;99.90
21167;DHT22;10741;52.272;9.580;2023-07-24T01:44:40;19.20;99.90
21167;DHT22;10741;52.272;9.580;2023-07-24T01:47:05;19.20;99.90
21167;DHT22;10741;52.272;9.580;2023-07-24T01:49:31;19.20;99.90
21167;DHT22;10741;52.272;9.580;2023-07-24T01:52:00;19.20;99.90
21167;DHT22;10741;52.272;9.580;2023-07-24T01:54:25;19.20;99.90
21167;DHT22;10741;52.272;9.580;2023-07-24T01:56:52;19.20;99.90
21167;DHT22;10741;52.272;9.580;2023-07-24T01:59:17;19.30;99.90
21167;DHT22;10741;52.272;9.580;2023-07-24T02:01:44;19.30;99.90
21167;DHT22;10741;52.272;9.580;2023-07-24T02:04:10;19.30;99.90
21167;DHT22;10741;52.272;9.580;2023-07-24T02:06:36;19.30;99.90
21167;DHT22;10741;52.272;9.580;2023-07-24T02:09:02;19.30;99.90
21167;DHT22;10741;52.272;9.580;2023-07-24T02:11:27;19.30;99.90
21167;DHT22;10741;52.272;9.580;2023-07-24T02:13:53;19.20;99.90
21167;DHT22;10741;52.272;9.580;2023-07-24T02:16:19;19.20;99.90
21167;DHT22;10741;52.272;9.580;2023-07-24T02:18:45;19.20;99.90
21167;DHT22;10741;52.272;9.580;2023-07-24T02:21:12;19.10;99.90
21167;DHT22;10741;52.272;9.580;2023-07-24T02:23:38;19.10;99.90
21167;DHT22;10741;52.272;9.580;2023-07-24T02:26:04;19.10;99.90
21167;DHT22;10741;52.272;9.580;2023-07-24T02:28:30;19.10;99.90
21167;DHT22;10741;52.272;9.580;2023-07-24T02:30:56;19.10;99.90
21167;DHT22;10741;52.272;9.580;2023-07-24T02:33:23;19.10;99.90
21167;DHT22;10741;52.272;9.580;2023-07-24T02:35:51;19.10;99.90
21167;DHT22;10741;52.272;9.580;2023-07-24T02:38:17;19.10;99.90
21167;DHT22;10741;52.272;9.580;2023-07-24T02:40:44;19.10;99.90
21167;DHT22;10741;52.272;9.580;2023-07-24T02:43:11;19.00;99.90
21167;DHT22;10741;52.272;9.580;2023-07-24T02:45:38;19.00;99.90
21167;DHT22;10741;52.272;9.580;2023-07-24T02:48:11;19.00;99.90
21167;DHT22;10741;52.272;9.580;2023-07-24T02:50:37;19.00;99.90
21167;DHT22;10741;52.272;9.580;2023-07-24T02:53:03;19.00;99.90
21167;DHT22;10741;52.272;9.580;2023-07-24T02:55:30;19.00;99.90
21167;DHT22;10741;52.272;9.580;2023-07-24T02:57:56;18.90;99.90
21167;DHT22;10741;52.272;9.580;2023-07-24T03:00:23;18.80;99.90
21167;DHT22;10741;52.272;9.580;2023-07-24T03:02:50;18.80;99.90
21167;DHT22;10741;52.272;9.580;2023-07-24T03:05:16;18.80;99.90
21167;DHT22;10741;52.272;9.580;2023-07-24T03:07:42;18.80;99.90
21167;DHT22;10741;52.272;9.580;2023-07-24T03:10:10;18.70;99.90
21167;DHT22;10741;52.272;9.580;2023-07-24T03:12:39;18.60;99.90
21167;DHT22;10741;52.272;9.580;2023-07-24T03:15:06;18.60;99.90
21167;DHT22;10741;52.272;9.580;2023-07-24T03:17:33;18.60;99.90
21167;DHT22;10741;52.272;9.580;2023-07-24T03:20:08;18.60;99.90
21167;DHT22;10741;52.272;9.580;2023-07-24T03:22:34;18.60;99.90
21167;DHT22;10741;52.272;9.580;2023-07-24T03:25:00;18.50;99.90
21167;DHT22;10741;52.272;9.580;2023-07-24T03:27:32;18.50;99.90
21167;DHT22;10741;52.272;9.580;2023-07-24T03:30:04;18.50;99.90
21167;DHT22;10741;52.272;9.580;2023-07-24T03:32:30;18.40;99.90
21167;DHT22;10741;52.272;9.580;2023-07-24T03:34:56;18.40;99.90
21167;DHT22;10741;52.272;9.580;2023-07-24T03:37:22;18.50;99.90
21167;DHT22;10741;52.272;9.580;2023-07-24T03:39:48;18.50;99.90
21167;DHT22;10741;52.272;9.580;2023-07-24T03:42:27;18.50;99.90
21167;DHT22;10741;52.272;9.580;2023-07-24T03:44:53;18.50;99.90
21167;DHT22;10741;52.272;9.580;2023-07-24T03:47:19;18.50;99.90
21167;DHT22;10741;52.272;9.580;2023-07-24T03:49:45;18.60;99.90
21167;DHT22;10741;52.272;9.580;2023-07-24T03:52:10;18.60;99.90
21167;DHT22;10741;52.272;9.580;2023-07-24T03:54:37;18.60;99.90
21167;DHT22;10741;52.272;9.580;2023-07-24T03:57:03;18.60;99.90
21167;DHT22;10741;52.272;9.580;2023-07-24T03:59:30;18.50;99.90
21167;DHT22;10741;52.272;9.580;2023-07-24T04:01:56;18.50;99.90
21167;DHT22;10741;52.272;9.580;2023-07-24T04:04:22;18.50;99.90
21167;DHT22;10741;52.272;9.580;2023-07-24T04:06:48;18.60;99.90
21167;DHT22;10741;52.272;9.580;2023-07-24T04:09:14;18.60;99.90
21167;DHT22;10741;52.272;9.580;2023-07-24T04:11:44;18.50;99.90
21167;DHT22;10741;52.272;9.580;2023-07-24T04:14:10;18.60;99.90
21167;DHT22;10741;52.272;9.580;2023-07-24T04:16:36;18.60;99.90
21167;DHT22;10741;52.272;9.580;2023-07-24T04:19:02;18.60;99.90
21167;DHT22;10741;52.272;9.580;2023-07-24T04:21:29;18.60;99.90
21167;DHT22;10741;52.272;9.580;2023-07-24T04:23:56;18.60;99.90
21167;DHT22;10741;52.272;9.580;2023-07-24T04:26:22;18.50;99.90
21167;DHT22;10741;52.272;9.580;2023-07-24T04:28:47;18.50;99.90
21167;DHT22;10741;52.272;9.580;2023-07-24T04:31:13;18.60;99.90
21167;DHT22;10741;52.272;9.580;2023-07-24T04:33:55;18.60;99.90
21167;DHT22;10741;52.272;9.580;2023-07-24T04:36:21;18.50;99.90
21167;DHT22;10741;52.272;9.580;2023-07-24T04:38:47;18.60;99.90
21167;DHT22;10741;52.272;9.580;2023-07-24T04:41:13;18.60;99.90
21167;DHT22;10741;52.272;9.580;2023-07-24T04:43:38;18.70;99.90
21167;DHT22;10741;52.272;9.580;2023-07-24T04:46:04;18.70;99.90
21167;DHT22;10741;52.272;9.580;2023-07-24T04:48:30;18.80;99.90
21167;DHT22;10741;52.272;9.580;2023-07-24T04:50:56;18.80;99.90
21167;DHT22;10741;52.272;9.580;2023-07-24T04:53:22;18.80;99.90
21167;DHT22;10741;52.272;9.580;2023-07-24T04:55:48;18.90;99.90
21167;DHT22;10741;52.272;9.580;2023-07-24T04:58:15;18.90;99.90
21167;DHT22;10741;52.272;9.580;2023-07-24T05:00:44;19.00;99.90
21167;DHT22;10741;52.272;9.580;2023-07-24T05:03:10;19.10;99.90
21167;DHT22;10741;52.272;9.580;2023-07-24T05:05:41;19.20;99.90
21167;DHT22;10741;52.272;9.580;2023-07-24T05:08:06;19.20;99.90
21167;DHT22;10741;52.272;9.580;2023-07-24T05:10:36;19.40;99.90
21167;DHT22;10741;52.272;9.580;2023-07-24T05:13:09;19.50;99.90
21167;DHT22;10741;52.272;9.580;2023-07-24T05:15:39;19.60;99.90
21167;DHT22;10741;52.272;9.580;2023-07-24T05:18:05;19.70;99.90
21167;DHT22;10741;52.272;9.580;2023-07-24T05:20:31;19.80;99.90
21167;DHT22;10741;52.272;9.580;2023-07-24T05:22:57;19.80;99.90
21167;DHT22;10741;52.272;9.580;2023-07-24T05:25:23;19.80;99.90
21167;DHT22;10741;52.272;9.580;2023-07-24T05:27:49;19.80;99.90
21167;DHT22;10741;52.272;9.580;2023-07-24T05:30:18;19.60;99.90
21167;DHT22;10741;52.272;9.580;2023-07-24T05:32:44;19.60;99.90
21167;DHT22;10741;52.272;9.580;2023-07-24T05:35:11;19.50;99.90
21167;DHT22;10741;52.272;9.580;2023-07-24T05:37:38;19.40;99.90
21167;DHT22;10741;52.272;9.580;2023-07-24T05:40:04;19.40;99.90
21167;DHT22;10741;52.272;9.580;2023-07-24T05:42:30;19.30;99.90
21167;DHT22;10741;52.272;9.580;2023-07-24T05:44:56;19.20;99.90
21167;DHT22;10741;52.272;9.580;2023-07-24T05:47:26;19.20;99.90
21167;DHT22;10741;52.272;9.580;2023-07-24T05:49:52;19.10;99.90
21167;DHT22;10741;52.272;9.580;2023-07-24T05:52:36;19.00;99.90
21167;DHT22;10741;52.272;9.580;2023-07-24T05:58:09;19.00;99.90
21167;DHT22;10741;52.272;9.580;2023-07-24T06:00:36;18.90;99.90
21167;DHT22;10741;52.272;9.580;2023-07-24T06:03:02;19.00;99.90
21167;DHT22;10741;52.272;9.580;2023-07-24T06:05:28;19.00;99.90
21167;DHT22;10741;52.272;9.580;2023-07-24T06:07:54;19.00;99.90
21167;DHT22;10741;52.272;9.580;2023-07-24T06:10:20;19.10;99.90
21167;DHT22;10741;52.272;9.580;2023-07-24T06:12:46;19.00;99.90
21167;DHT22;10741;52.272;9.580;2023-07-24T06:15:13;19.10;99.90
21167;DHT22;10741;52.272;9.580;2023-07-24T06:17:39;19.10;99.90
21167;DHT22;10741;52.272;9.580;2023-07-24T06:20:06;19.10;99.90
21167;DHT22;10741;52.272;9.580;2023-07-24T06:22:32;19.20;99.90
21167;DHT22;10741;52.272;9.580;2023-07-24T06:24:58;19.20;99.90
21167;DHT22;10741;52.272;9.580;2023-07-24T06:27:24;19.30;99.90
21167;DHT22;10741;52.272;9.580;2023-07-24T06:29:49;19.40;99.90
21167;DHT22;10741;52.272;9.580;2023-07-24T06:32:15;19.40;99.90
21167;DHT22;10741;52.272;9.580;2023-07-24T06:34:41;19.50;99.90
21167;DHT22;10741;52.272;9.580;2023-07-24T06:37:06;19.50;99.90
21167;DHT22;10741;52.272;9.580;2023-07-24T06:39:32;19.60;99.90
21167;DHT22;10741;52.272;9.580;2023-07-24T06:41:59;19.70;99.90
21167;DHT22;10741;52.272;9.580;2023-07-24T06:44:24;19.80;99.90
21167;DHT22;10741;52.272;9.580;2023-07-24T06:46:50;19.90;99.90
21167;DHT22;10741;52.272;9.580;2023-07-24T06:49:16;19.90;99.90
21167;DHT22;10741;52.272;9.580;2023-07-24T06:51:41;20.00;99.90
21167;DHT22;10741;52.272;9.580;2023-07-24T06:54:07;20.00;99.90
21167;DHT22;10741;52.272;9.580;2023-07-24T06:56:33;20.10;99.90
21167;DHT22;10741;52.272;9.580;2023-07-24T06:58:59;20.00;99.90
21167;DHT22;10741;52.272;9.580;2023-07-24T07:01:25;20.00;99.90
21167;DHT22;10741;52.272;9.580;2023-07-24T07:03:50;20.00;99.90
21167;DHT22;10741;52.272;9.580;2023-07-24T07:06:16;20.00;99.90
21167;DHT22;10741;52.272;9.580;2023-07-24T07:08:42;20.00;99.90
21167;DHT22;10741;52.272;9.580;2023-07-24T07:11:08;20.00;99.90
21167;DHT22;10741;52.272;9.580;2023-07-24T07:13:34;20.10;99.90
21167;DHT22;10741;52.272;9.580;2023-07-24T07:15:59;20.10;99.90
21167;DHT22;10741;52.272;9.580;2023-07-24T07:18:25;20.10;99.90
21167;DHT22;10741;52.272;9.580;2023-07-24T07:20:53;20.00;99.90
21167;DHT22;10741;52.272;9.580;2023-07-24T07:23:19;19.90;99.90
21167;DHT22;10741;52.272;9.580;2023-07-24T07:25:45;19.70;99.90
21167;DHT22;10741;52.272;9.580;2023-07-24T07:28:15;19.60;99.90
21167;DHT22;10741;52.272;9.580;2023-07-24T07:30:42;19.40;99.90
21167;DHT22;10741;52.272;9.580;2023-07-24T07:33:08;19.50;99.90
21167;DHT22;10741;52.272;9.580;2023-07-24T07:35:34;19.40;99.90
21167;DHT22;10741;52.272;9.580;2023-07-24T07:38:01;19.40;99.90
21167;DHT22;10741;52.272;9.580;2023-07-24T07:40:27;19.40;99.90
21167;DHT22;10741;52.272;9.580;2023-07-24T07:42:53;19.50;99.90
21167;DHT22;10741;52.272;9.580;2023-07-24T07:45:20;19.50;99.90
21167;DHT22;10741;52.272;9.580;2023-07-24T07:47:46;19.40;99.90
21167;DHT22;10741;52.272;9.580;2023-07-24T07:50:12;19.30;99.90
21167;DHT22;10741;52.272;9.580;2023-07-24T07:52:38;19.20;99.90
21167;DHT22;10741;52.272;9.580;2023-07-24T07:55:05;19.10;99.90
21167;DHT22;10741;52.272;9.580;2023-07-24T07:57:37;19.00;99.90
21167;DHT22;10741;52.272;9.580;2023-07-24T08:00:04;19.00;99.90
21167;DHT22;10741;52.272;9.580;2023-07-24T08:02:31;19.00;99.90
21167;DHT22;10741;52.272;9.580;2023-07-24T08:04:58;18.80;99.90
21167;DHT22;10741;52.272;9.580;2023-07-24T08:07:23;18.80;99.90
21167;DHT22;10741;52.272;9.580;2023-07-24T08:09:49;18.70;99.90
21167;DHT22;10741;52.272;9.580;2023-07-24T08:12:15;18.80;99.90
21167;DHT22;10741;52.272;9.580;2023-07-24T08:14:41;18.80;99.90
21167;DHT22;10741;52.272;9.580;2023-07-24T08:17:07;18.90;99.90
21167;DHT22;10741;52.272;9.580;2023-07-24T08:19:32;19.00;99.90
21167;DHT22;10741;52.272;9.580;2023-07-24T08:22:25;18.90;99.90
21167;DHT22;10741;52.272;9.580;2023-07-24T08:25:00;19.00;99.90
21167;DHT22;10741;52.272;9.580;2023-07-24T08:27:26;19.20;99.90
21167;DHT22;10741;52.272;9.580;2023-07-24T08:29:51;19.20;99.90
21167;DHT22;10741;52.272;9.580;2023-07-24T08:32:20;19.40;99.90
21167;DHT22;10741;52.272;9.580;2023-07-24T08:34:46;19.50;99.90
21167;DHT22;10741;52.272;9.580;2023-07-24T08:37:12;19.60;99.90
21167;DHT22;10741;52.272;9.580;2023-07-24T08:39:38;19.60;99.90
21167;DHT22;10741;52.272;9.580;2023-07-24T08:42:13;19.60;99.90
21167;DHT22;10741;52.272;9.580;2023-07-24T08:44:40;19.70;99.90
21167;DHT22;10741;52.272;9.580;2023-07-24T08:47:10;19.80;99.90
21167;DHT22;10741;52.272;9.580;2023-07-24T08:49:39;19.70;99.90
21167;DHT22;10741;52.272;9.580;2023-07-24T08:52:08;19.70;99.90
21167;DHT22;10741;52.272;9.580;2023-07-24T08:54:38;19.70;99.90
21167;DHT22;10741;52.272;9.580;2023-07-24T08:57:10;19.80;99.90
21167;DHT22;10741;52.272;9.580;2023-07-24T08:59:37;19.80;99.90
21167;DHT22;10741;52.272;9.580;2023-07-24T09:02:03;19.70;99.90
21167;DHT22;10741;52.272;9.580;2023-07-24T09:04:32;19.70;99.90
21167;DHT22;10741;52.272;9.580;2023-07-24T09:06:58;19.70;99.90
21167;DHT22;10741;52.272;9.580;2023-07-24T09:09:32;19.60;99.90
21167;DHT22;10741;52.272;9.580;2023-07-24T09:11:57;19.80;99.90
21167;DHT22;10741;52.272;9.580;2023-07-24T09:14:31;19.70;99.90
21167;DHT22;10741;52.272;9.580;2023-07-24T09:17:08;19.90;99.90
21167;DHT22;10741;52.272;9.580;2023-07-24T09:19:35;20.10;99.90
21167;DHT22;10741;52.272;9.580;2023-07-24T09:22:16;20.20;99.90
21167;DHT22;10741;52.272;9.580;2023-07-24T09:24:56;20.20;99.90
21167;DHT22;10741;52.272;9.580;2023-07-24T09:27:26;20.20;99.90
21167;DHT22;10741;52.272;9.580;2023-07-24T09:29:52;20.10;99.90
21167;DHT22;10741;52.272;9.580;2023-07-24T09:32:26;20.10;99.90
21167;DHT22;10741;52.272;9.580;2023-07-24T09:34:52;20.20;99.90
21167;DHT22;10741;52.272;9.580;2023-07-24T09:37:30;20.30;99.90
21167;DHT22;10741;52.272;9.580;2023-07-24T09:39:56;20.40;99.90
21167;DHT22;10741;52.272;9.580;2023-07-24T09:42:32;20.50;99.90
21167;DHT22;10741;52.272;9.580;2023-07-24T09:44:59;20.50;99.90
21167;DHT22;10741;52.272;9.580;2023-07-24T09:47:25;20.70;99.90
21167;DHT22;10741;52.272;9.580;2023-07-24T09:49:52;20.70;99.90
21167;DHT22;10741;52.272;9.580;2023-07-24T09:52:19;20.60;99.90
21167;DHT22;10741;52.272;9.580;2023-07-24T09:57:26;20.70;99.90
21167;DHT22;10741;52.272;9.580;2023-07-24T09:59:53;20.80;99.90
21167;DHT22;10741;52.272;9.580;2023-07-24T10:02:20;20.90;99.90
21167;DHT22;10741;52.272;9.580;2023-07-24T10:04:46;21.00;99.90
21167;DHT22;10741;52.272;9.580;2023-07-24T10:07:13;21.20;99.90
21167;DHT22;10741;52.272;9.580;2023-07-24T10:09:44;21.50;99.90
21167;DHT22;10741;52.272;9.580;2023-07-24T10:12:10;21.70;99.90
21167;DHT22;10741;52.272;9.580;2023-07-24T10:14:36;21.80;99.90
21167;DHT22;10741;52.272;9.580;2023-07-24T10:17:03;22.00;99.90
21167;DHT22;10741;52.272;9.580;2023-07-24T10:19:39;22.30;99.90
21167;DHT22;10741;52.272;9.580;2023-07-24T10:22:09;22.10;99.90
21167;DHT22;10741;52.272;9.580;2023-07-24T10:24:41;22.10;99.90
21167;DHT22;10741;52.272;9.580;2023-07-24T10:27:07;22.10;99.90
21167;DHT22;10741;52.272;9.580;2023-07-24T10:29:36;21.90;99.90
21167;DHT22;10741;52.272;9.580;2023-07-24T10:32:02;22.00;99.90
21167;DHT22;10741;52.272;9.580;2023-07-24T10:34:38;21.90;99.90
21167;DHT22;10741;52.272;9.580;2023-07-24T10:37:07;21.90;99.90
21167;DHT22;10741;52.272;9.580;2023-07-24T10:39:40;22.10;99.90
21167;DHT22;10741;52.272;9.580;2023-07-24T10:42:10;22.30;99.90
21167;DHT22;10741;52.272;9.580;2023-07-24T10:44:37;22.30;99.90
21167;DHT22;10741;52.272;9.580;2023-07-24T10:47:03;22.20;99.90
21167;DHT22;10741;52.272;9.580;2023-07-24T10:49:29;22.00;99.90
21167;DHT22;10741;52.272;9.580;2023-07-24T10:51:56;21.80;99.90
21167;DHT22;10741;52.272;9.580;2023-07-24T10:54:22;21.80;99.90
21167;DHT22;10741;52.272;9.580;2023-07-24T10:56:48;21.70;99.90
21167;DHT22;10741;52.272;9.580;2023-07-24T10:59:14;22.00;99.90
21167;DHT22;10741;52.272;9.580;2023-07-24T11:01:47;22.10;99.90
21167;DHT22;10741;52.272;9.580;2023-07-24T11:04:13;22.50;99.90
21167;DHT22;10741;52.272;9.580;2023-07-24T11:06:39;23.00;99.90
21167;DHT22;10741;52.272;9.580;2023-07-24T11:09:05;23.00;99.90
21167;DHT22;10741;52.272;9.580;2023-07-24T11:11:32;23.10;99.90
21167;DHT22;10741;52.272;9.580;2023-07-24T11:13:58;23.00;99.90
21167;DHT22;10741;52.272;9.580;2023-07-24T11:16:25;22.90;99.90
21167;DHT22;10741;52.272;9.580;2023-07-24T11:18:51;22.80;99.90
21167;DHT22;10741;52.272;9.580;2023-07-24T11:21:18;22.60;99.90
21167;DHT22;10741;52.272;9.580;2023-07-24T11:23:49;22.50;99.90
21167;DHT22;10741;52.272;9.580;2023-07-24T11:26:15;22.30;99.90
21167;DHT22;10741;52.272;9.580;2023-07-24T11:28:41;22.10;99.90
21167;DHT22;10741;52.272;9.580;2023-07-24T11:31:07;21.80;99.90
21167;DHT22;10741;52.272;9.580;2023-07-24T11:33:34;21.50;99.90
21167;DHT22;10741;52.272;9.580;2023-07-24T11:36:00;21.40;99.90
21167;DHT22;10741;52.272;9.580;2023-07-24T11:38:26;21.20;99.90
21167;DHT22;10741;52.272;9.580;2023-07-24T11:40:54;21.30;99.90
21167;DHT22;10741;52.272;9.580;2023-07-24T11:43:22;21.70;99.90
21167;DHT22;10741;52.272;9.580;2023-07-24T11:45:49;22.00;99.90
21167;DHT22;10741;52.272;9.580;2023-07-24T11:48:18;21.70;99.90
21167;DHT22;10741;52.272;9.580;2023-07-24T11:50:50;21.60;99.90
21167;DHT22;10741;52.272;9.580;2023-07-24T11:53:24;21.80;99.90
21167;DHT22;10741;52.272;9.580;2023-07-24T11:55:51;21.80;99.90
21167;DHT22;10741;52.272;9.580;2023-07-24T11:58:18;21.70;99.90
21167;DHT22;10741;52.272;9.580;2023-07-24T12:00:47;21.70;99.90
21167;DHT22;10741;52.272;9.580;2023-07-24T12:03:34;21.50;99.90
21167;DHT22;10741;52.272;9.580;2023-07-24T12:05:59;21.40;99.90
21167;DHT22;10741;52.272;9.580;2023-07-24T12:08:34;21.20;99.90
21167;DHT22;10741;52.272;9.580;2023-07-24T12:11:00;20.90;99.90
21167;DHT22;10741;52.272;9.580;2023-07-24T12:13:26;20.80;99.90
21167;DHT22;10741;52.272;9.580;2023-07-24T12:15:52;20.60;99.90
21167;DHT22;10741;52.272;9.580;2023-07-24T12:18:18;20.40;99.90
21167;DHT22;10741;52.272;9.580;2023-07-24T12:20:44;20.20;99.90
21167;DHT22;10741;52.272;9.580;2023-07-24T12:23:10;20.00;99.90
21167;DHT22;10741;52.272;9.580;2023-07-24T12:25:36;19.80;99.90
21167;DHT22;10741;52.272;9.580;2023-07-24T12:28:02;19.70;99.90
21167;DHT22;10741;52.272;9.580;2023-07-24T12:30:28;19.60;99.90
21167;DHT22;10741;52.272;9.580;2023-07-24T12:32:53;19.50;99.90
21167;DHT22;10741;52.272;9.580;2023-07-24T12:35:19;19.50;99.90
21167;DHT22;10741;52.272;9.580;2023-07-24T12:37:46;19.40;99.90
21167;DHT22;10741;52.272;9.580;2023-07-24T12:40:12;19.40;99.90
21167;DHT22;10741;52.272;9.580;2023-07-24T12:42:39;19.50;99.90
21167;DHT22;10741;52.272;9.580;2023-07-24T12:45:07;19.40;99.90
21167;DHT22;10741;52.272;9.580;2023-07-24T12:47:41;19.60;99.90
21167;DHT22;10741;52.272;9.580;2023-07-24T12:50:11;19.90;99.90
21167;DHT22;10741;52.272;9.580;2023-07-24T12:52:37;20.40;99.90
21167;DHT22;10741;52.272;9.580;2023-07-24T12:55:04;20.70;99.90
21167;DHT22;10741;52.272;9.580;2023-07-24T12:57:30;21.30;99.90
21167;DHT22;10741;52.272;9.580;2023-07-24T12:59:55;21.80;99.90
21167;DHT22;10741;52.272;9.580;2023-07-24T13:02:21;22.20;99.90
21167;DHT22;10741;52.272;9.580;2023-07-24T13:04:48;22.30;99.90
21167;DHT22;10741;52.272;9.580;2023-07-24T13:07:15;22.30;99.90
21167;DHT22;10741;52.272;9.580;2023-07-24T13:09:40;22.20;99.90
21167;DHT22;10741;52.272;9.580;2023-07-24T13:12:07;22.00;99.90
21167;DHT22;10741;52.272;9.580;2023-07-24T13:14:33;22.30;99.90
21167;DHT22;10741;52.272;9.580;2023-07-24T13:16:58;22.30;99.90
21167;DHT22;10741;52.272;9.580;2023-07-24T13:19:24;22.20;99.90
21167;DHT22;10741;52.272;9.580;2023-07-24T13:21:50;22.20;99.90
21167;DHT22;10741;52.272;9.580;2023-07-24T13:24:16;22.60;99.90
21167;DHT22;10741;52.272;9.580;2023-07-24T13:26:41;22.40;99.90
21167;DHT22;10741;52.272;9.580;2023-07-24T13:29:08;22.20;99.90
21167;DHT22;10741;52.272;9.580;2023-07-24T13:31:33;22.00;99.90
21167;DHT22;10741;52.272;9.580;2023-07-24T13:34:00;21.90;99.90
21167;DHT22;10741;52.272;9.580;2023-07-24T13:36:26;21.70;99.90
21167;DHT22;10741;52.272;9.580;2023-07-24T13:38:51;21.50;99.90
21167;DHT22;10741;52.272;9.580;2023-07-24T13:41:20;21.30;99.90
21167;DHT22;10741;52.272;9.580;2023-07-24T13:43:46;21.20;99.90
21167;DHT22;10741;52.272;9.580;2023-07-24T13:46:12;21.00;99.90
21167;DHT22;10741;52.272;9.580;2023-07-24T13:48:38;20.90;99.90
21167;DHT22;10741;52.272;9.580;2023-07-24T13:51:04;20.80;99.90
21167;DHT22;10741;52.272;9.580;2023-07-24T13:53:29;20.60;99.90
21167;DHT22;10741;52.272;9.580;2023-07-24T13:55:55;20.30;99.90
21167;DHT22;10741;52.272;9.580;2023-07-24T13:58:23;20.10;99.90
21167;DHT22;10741;52.272;9.580;2023-07-24T14:00:49;19.90;99.90
21167;DHT22;10741;52.272;9.580;2023-07-24T14:03:15;19.80;99.90
21167;DHT22;10741;52.272;9.580;2023-07-24T14:05:40;19.70;99.90
21167;DHT22;10741;52.272;9.580;2023-07-24T14:08:07;19.50;99.90
21167;DHT22;10741;52.272;9.580;2023-07-24T14:10:33;19.30;99.90
21167;DHT22;10741;52.272;9.580;2023-07-24T14:12:59;18.90;99.90
21167;DHT22;10741;52.272;9.580;2023-07-24T14:15:25;18.80;99.90
21167;DHT22;10741;52.272;9.580;2023-07-24T14:17:51;18.70;99.90
21167;DHT22;10741;52.272;9.580;2023-07-24T14:20:16;18.60;99.90
21167;DHT22;10741;52.272;9.580;2023-07-24T14:22:43;18.60;99.90
21167;DHT22;10741;52.272;9.580;2023-07-24T14:25:09;18.60;99.90
21167;DHT22;10741;52.272;9.580;2023-07-24T14:27:34;18.60;99.90
21167;DHT22;10741;52.272;9.580;2023-07-24T14:30:00;18.60;99.90
21167;DHT22;10741;52.272;9.580;2023-07-24T14:32:26;18.50;99.90
21167;DHT22;10741;52.272;9.580;2023-07-24T14:34:53;18.50;99.90
21167;DHT22;10741;52.272;9.580;2023-07-24T14:37:19;18.40;99.90
21167;DHT22;10741;52.272;9.580;2023-07-24T14:39:49;18.40;99.90
21167;DHT22;10741;52.272;9.580;2023-07-24T14:42:15;18.40;99.90
21167;DHT22;10741;52.272;9.580;2023-07-24T14:44:41;18.20;99.90
21167;DHT22;10741;52.272;9.580;2023-07-24T14:47:06;18.20;99.90
21167;DHT22;10741;52.272;9.580;2023-07-24T14:49:33;18.10;99.90
21167;DHT22;10741;52.272;9.580;2023-07-24T14:51:59;18.10;99.90
21167;DHT22;10741;52.272;9.580;2023-07-24T14:54:25;18.00;99.90
21167;DHT22;10741;52.272;9.580;2023-07-24T14:56:50;17.90;99.90
21167;DHT22;10741;52.272;9.580;2023-07-24T14:59:16;17.80;99.90
21167;DHT22;10741;52.272;9.580;2023-07-24T15:01:45;17.80;99.90
21167;DHT22;10741;52.272;9.580;2023-07-24T15:04:10;17.80;99.90
21167;DHT22;10741;52.272;9.580;2023-07-24T15:06:36;17.80;99.90
21167;DHT22;10741;52.272;9.580;2023-07-24T15:09:02;17.80;99.90
21167;DHT22;10741;52.272;9.580;2023-07-24T15:11:28;17.80;99.90
21167;DHT22;10741;52.272;9.580;2023-07-24T15:13:54;17.90;99.90
21167;DHT22;10741;52.272;9.580;2023-07-24T15:16:21;18.00;99.90
21167;DHT22;10741;52.272;9.580;2023-07-24T15:18:46;18.10;99.90
21167;DHT22;10741;52.272;9.580;2023-07-24T15:21:13;18.10;99.90
21167;DHT22;10741;52.272;9.580;2023-07-24T15:23:39;18.40;99.90
21167;DHT22;10741;52.272;9.580;2023-07-24T15:26:04;18.50;99.90
21167;DHT22;10741;52.272;9.580;2023-07-24T15:28:30;18.60;99.90
21167;DHT22;10741;52.272;9.580;2023-07-24T15:30:56;18.80;99.90
21167;DHT22;10741;52.272;9.580;2023-07-24T15:33:22;19.00;99.90
21167;DHT22;10741;52.272;9.580;2023-07-24T15:35:48;19.10;99.90
21167;DHT22;10741;52.272;9.580;2023-07-24T15:38:14;19.30;99.90
21167;DHT22;10741;52.272;9.580;2023-07-24T15:40:40;19.40;99.90